Terminal Aerodrome Forecast
Issued by NWS Sioux Falls, SD

Home | Current Version | Previous Version | Text Only | Print | Product List | Glossary On
Versions: 1 2 3 4 5 6 7 8 9 10 11 12 13
116
FTUS43 KFSD 231720
TAFHON
TAF
KHON 231720Z 2318/2418 14014G21KT P6SM SCT060 BKN150
     FM240000 16011KT P6SM FEW070 SCT200
     FM240500 16011KT P6SM VCTS BKN070CB BKN150 WS014/18040KT
     FM240800 17010KT P6SM FEW070 SCT150
     FM241300 17012G20KT P6SM FEW070 SCT250=

USA.gov is the U.S. government's official web portal to all federal, state and local government web resources and services.